H.kanter — ESUB — position and weather

sailwx.info

Track history (hours):
 
Tides and Currents Weather Stations Pressure Air Temp Water Temp Dewpoint Dewpoint Depression Visibility Wind Speed Wind Dir Waves Ship Positions

H.kanter

Last reported at 2017-Jun-29 07:01 UTC. Time now 2017-Jun-29 07:25 UTC.
Position N 59°30' E 024°57'.

Length 33 m; draft 4.8 m.

Type: Tug. MMSI: 276504000.

Date/timePositionNaut miles runAvg speedWind from/ knotsBaromVisibWave heightAir tempDewpointWater temp
2017-Jun-29 07:01N 59°30' E 024°57'0 0.3
2017-Jun-29 06:31N 59°30' E 024°56'0 0.0
2017-Jun-29 06:00N 59°30' E 024°56'0 0.0
2017-Jun-29 05:30N 59°30' E 024°56'0 0.0
2017-Jun-29 05:00N 59°30' E 024°56'0 0.0
2017-Jun-29 04:30N 59°30' E 024°56'0 0.0
2017-Jun-29 04:01N 59°30' E 024°56'0 0.0
2017-Jun-29 03:31N 59°30' E 024°56'0 0.0
2017-Jun-29 03:01N 59°30' E 024°56'0 0.0
2017-Jun-29 02:31N 59°30' E 024°56'0 0.0
2017-Jun-29 02:00N 59°30' E 024°56'0 0.0
2017-Jun-29 01:31N 59°30' E 024°56'0 0.0
2017-Jun-29 01:00N 59°30' E 024°56'0 0.0
2017-Jun-29 00:31N 59°30' E 024°56'0 0.0
2017-Jun-29 00:01N 59°30' E 024°56'0 0.0
2017-Jun-28 23:30N 59°30' E 024°56'0 0.0
2017-Jun-28 23:01N 59°30' E 024°56'0 0.0
2017-Jun-28 22:31N 59°30' E 024°56'0 0.0
2017-Jun-28 22:01N 59°30' E 024°56'0 0.0
2017-Jun-28 21:31N 59°30' E 024°56'0 0.0
2017-Jun-28 21:00N 59°30' E 024°56'0 0.0
2017-Jun-28 20:31N 59°30' E 024°56'0 0.0
2017-Jun-28 20:00N 59°30' E 024°56'0 0.2
2017-Jun-28 19:30N 59°30' E 024°57'2 3.1
2017-Jun-28 19:01N 59°31' E 024°59'2 3.3
2017-Jun-28 18:30N 59°30' E 024°56'0 0.0
2017-Jun-28 18:01N 59°30' E 024°56'0 0.0
2017-Jun-28 17:30N 59°30' E 024°56'0 0.0
2017-Jun-28 17:01N 59°30' E 024°56'0 0.0
2017-Jun-28 16:31N 59°30' E 024°56'0 0.0
2017-Jun-28 16:00N 59°30' E 024°56'0 0.0
2017-Jun-28 15:31N 59°30' E 024°56'0 0.0
2017-Jun-28 15:01N 59°30' E 024°56'0 0.0
2017-Jun-28 14:01N 59°30' E 024°56'0 0.0
2017-Jun-28 13:30N 59°30' E 024°56'0 0.0
2017-Jun-28 13:00N 59°30' E 024°56'0 0.0
2017-Jun-28 12:31N 59°30' E 024°56'0 0.0
2017-Jun-28 12:00N 59°30' E 024°56'0 0.0
2017-Jun-28 11:31N 59°30' E 024°56'0 0.0
2017-Jun-28 11:00N 59°30' E 024°56'0 0.0
2017-Jun-28 10:31N 59°30' E 024°56'0 0.0
2017-Jun-28 10:01N 59°30' E 024°56'0 0.0
2017-Jun-28 09:31N 59°30' E 024°56'0 0.0
2017-Jun-28 09:00N 59°30' E 024°56'0 0.0
2017-Jun-28 08:31N 59°30' E 024°56'0 0.0
2017-Jun-28 08:01N 59°30' E 024°56'0 0.0
2017-Jun-28 07:31N 59°30' E 024°56'0 0.0
2017-Jun-28 07:00N 59°30' E 024°56'0 0.0
2017-Jun-28 06:31N 59°30' E 024°56'0 0.0
2017-Jun-28 06:01N 59°30' E 024°56'0 0.0
2017-Jun-28 05:31N 59°30' E 024°56'0 0.0
2017-Jun-28 05:00N 59°30' E 024°56'0 0.0
2017-Jun-28 04:31N 59°30' E 024°56'0 0.0
2017-Jun-28 04:01N 59°30' E 024°56'0 0.0
2017-Jun-28 03:31N 59°30' E 024°56'0 0.0
2017-Jun-28 03:01N 59°30' E 024°56'0 0.0
2017-Jun-28 02:31N 59°30' E 024°56'0 0.0
2017-Jun-28 02:01N 59°30' E 024°56'0 0.0
2017-Jun-28 01:31N 59°30' E 024°56'0 0.0
2017-Jun-28 01:01N 59°30' E 024°56'0 0.0
2017-Jun-28 00:30N 59°30' E 024°56'0 0.0
2017-Jun-28 00:01N 59°30' E 024°56'0 0.0
2017-Jun-27 23:31N 59°30' E 024°56'0 0.0
2017-Jun-27 23:00N 59°30' E 024°56'0 0.0
2017-Jun-27 22:30N 59°30' E 024°56'0 0.0
2017-Jun-27 22:01N 59°30' E 024°56'1 1.5
2017-Jun-27 21:31N 59°30' E 024°58'0 0.2
2017-Jun-27 21:01N 59°30' E 024°58'1 1.6
2017-Jun-27 20:31N 59°30' E 024°56'0 0.0
2017-Jun-27 20:01N 59°30' E 024°56'0 0.0
2017-Jun-27 19:31N 59°30' E 024°56'0 0.0
2017-Jun-27 19:00N 59°30' E 024°56'0 0.0
2017-Jun-27 18:31N 59°30' E 024°56'0 0.0
2017-Jun-27 18:01N 59°30' E 024°56'0 0.0
2017-Jun-27 17:30N 59°30' E 024°56'0 0.0
2017-Jun-27 17:01N 59°30' E 024°56'0 0.0
2017-Jun-27 16:31N 59°30' E 024°56'0 0.0
2017-Jun-27 16:01N 59°30' E 024°56'0 0.0
2017-Jun-27 15:31N 59°30' E 024°56'0 0.0
2017-Jun-27 15:00N 59°30' E 024°56'0 0.0
2017-Jun-27 14:00N 59°30' E 024°56'0 0.0
2017-Jun-27 13:30N 59°30' E 024°56'0 0.0
2017-Jun-27 13:01N 59°30' E 024°56'0 0.0
2017-Jun-27 12:30N 59°30' E 024°56'0 0.0
2017-Jun-27 12:00N 59°30' E 024°56'0 0.0
2017-Jun-27 11:31N 59°30' E 024°56'0 0.0
2017-Jun-27 11:00N 59°30' E 024°56'4 8.0
2017-Jun-27 10:31N 59°33' E 024°54'611.0
2017-Jun-27 10:00N 59°37' E 024°46'611.2
2017-Jun-27 09:30N 59°38' E 024°35'510.6
2017-Jun-27 09:00N 59°36' E 024°25'510.8
2017-Jun-27 08:30N 59°33' E 024°17'510.8
2017-Jun-27 08:00N 59°29' E 024°09'611.1
2017-Jun-27 07:30N 59°25' E 024°01'510.2
2017-Jun-27 07:01N 59°20' E 024°03'1 1.0
2017-Jun-27 06:23N 59°20' E 024°05'0 0.0
2017-Jun-27 02:13N 59°20' E 024°05'0 0.0
2017-Jun-27 01:19N 59°20' E 024°05'0 0.0
2017-Jun-27 01:00N 59°20' E 024°05'0 0.0
2017-Jun-27 00:14N 59°20' E 024°05'0 2.0
2017-Jun-27 00:00N 59°20' E 024°04'0 0.7
2017-Jun-26 23:30N 59°20' E 024°05'0 0.0
2017-Jun-26 23:01N 59°20' E 024°05'0 0.1
2017-Jun-26 20:07N 59°20' E 024°05'1 6.5
2017-Jun-26 20:01N 59°20' E 024°03'5 9.8
2017-Jun-26 19:30N 59°25' E 024°01'510.1
2017-Jun-26 19:00N 59°29' E 024°08'510.3
2017-Jun-26 18:31N 59°32' E 024°15'510.4
2017-Jun-26 18:01N 59°36' E 024°23'5 9.6
2017-Jun-26 17:30N 59°38' E 024°31'510.3
2017-Jun-26 17:01N 59°38' E 024°41'1 2.6
2017-Jun-26 16:30N 59°38' E 024°39'510.8
2017-Jun-26 16:01N 59°38' E 024°28'2 4.0
2017-Jun-26 15:30N 59°37' E 024°25'5 9.5
2017-Jun-26 15:00N 59°38' E 024°34'510.4
2017-Jun-26 14:31N 59°38' E 024°44'1010.0
2017-Jun-26 13:30N 59°31' E 024°58'1 2.0
2017-Jun-26 13:00N 59°30' E 024°56'0 0.0
2017-Jun-26 12:30N 59°30' E 024°56'0 0.0
2017-Jun-26 11:58N 59°30' E 024°56'0 0.0
2017-Jun-26 11:28N 59°30' E 024°56'0 0.0
2017-Jun-26 10:58N 59°30' E 024°56'0 0.0
2017-Jun-26 10:29N 59°30' E 024°56'1 1.5
2017-Jun-26 10:00N 59°30' E 024°58'1 1.0
2017-Jun-26 09:30N 59°30' E 024°58'1 1.6
2017-Jun-26 08:58N 59°30' E 024°56'0 0.0
2017-Jun-26 08:29N 59°30' E 024°56'0 0.0
2017-Jun-26 07:59N 59°30' E 024°56'0 0.0
2017-Jun-26 07:29N 59°30' E 024°56'0 0.0
2017-Jun-26 07:00N 59°30' E 024°56'0 0.0
2017-Jun-26 06:30N 59°30' E 024°56'0 0.0
2017-Jun-26 06:00N 59°30' E 024°56'0 0.0
2017-Jun-26 05:28N 59°30' E 024°56'0 0.0
2017-Jun-26 04:58N 59°30' E 024°56'0 0.0
2017-Jun-26 04:28N 59°30' E 024°56'0 0.0
2017-Jun-26 03:59N 59°30' E 024°56'0 0.0
2017-Jun-26 03:29N 59°30' E 024°56'0 0.0
2017-Jun-26 02:59N 59°30' E 024°56'0 0.0
2017-Jun-26 02:30N 59°30' E 024°56'0 0.0
2017-Jun-26 02:00N 59°30' E 024°56'0 0.0
2017-Jun-26 01:30N 59°30' E 024°56'0 0.0
2017-Jun-26 00:58N 59°30' E 024°56'0 0.0
2017-Jun-26 00:28N 59°30' E 024°56'0 0.0
2017-Jun-25 23:58N 59°30' E 024°56'0 0.0
2017-Jun-25 23:29N 59°30' E 024°56'0 0.0
2017-Jun-25 22:59N 59°30' E 024°56'0 0.0
2017-Jun-25 22:29N 59°30' E 024°56'0 0.0
2017-Jun-25 22:00N 59°30' E 024°56'0 0.0
2017-Jun-25 21:30N 59°30' E 024°56'0 0.0
2017-Jun-25 21:00N 59°30' E 024°56'0 0.0
2017-Jun-25 20:28N 59°30' E 024°56'0 0.0
2017-Jun-25 19:58N 59°30' E 024°56'0 0.0
2017-Jun-25 19:28N 59°30' E 024°56'0 0.0
2017-Jun-25 18:59N 59°30' E 024°56'0 0.0
2017-Jun-25 18:29N 59°30' E 024°56'0 0.0
2017-Jun-25 17:59N 59°30' E 024°56'0 0.0
2017-Jun-25 17:30N 59°30' E 024°56'0 0.0
2017-Jun-25 17:00N 59°30' E 024°56'0 0.0
2017-Jun-25 16:30N 59°30' E 024°56'0 0.0
2017-Jun-25 15:58N 59°30' E 024°56'0 0.0
2017-Jun-25 15:28N 59°30' E 024°56'0 0.0
2017-Jun-25 14:58N 59°30' E 024°56'0 0.0
2017-Jun-25 14:29N 59°30' E 024°56'0 0.0
2017-Jun-25 13:29N 59°30' E 024°56'0 0.0
2017-Jun-25 13:00N 59°30' E 024°56'0 0.0
2017-Jun-25 12:30N 59°30' E 024°56'0 0.0
2017-Jun-25 12:00N 59°30' E 024°56'1 1.5
2017-Jun-25 11:31N 59°30' E 024°58'510.6
2017-Jun-25 11:00N 59°35' E 024°52'510.6
2017-Jun-25 10:30N 59°37' E 024°42'510.9
2017-Jun-25 10:01N 59°38' E 024°32'510.5
2017-Jun-25 09:30N 59°36' E 024°23'611.1
2017-Jun-25 09:00N 59°32' E 024°15'611.1
2017-Jun-25 08:31N 59°28' E 024°07'510.8
2017-Jun-25 08:01N 59°24' E 024°01'4 8.7
2017-Jun-25 07:31N 59°20' E 024°05'0 0.1
2017-Jun-25 07:00N 59°20' E 024°05'1 2.3
2017-Jun-25 06:30N 59°20' E 024°02'0 0.9
2017-Jun-25 06:01N 59°20' E 024°03'1 2.3
2017-Jun-25 05:30N 59°21' E 024°02'5 9.8
2017-Jun-25 05:00N 59°26' E 024°03'510.5
2017-Jun-25 04:30N 59°30' E 024°10'510.5
2017-Jun-25 04:00N 59°33' E 024°18'510.4
2017-Jun-25 03:30N 59°37' E 024°25'5 9.3
2017-Jun-25 03:00N 59°38' E 024°34'510.3
2017-Jun-25 02:30N 59°38' E 024°44'510.0
2017-Jun-25 02:00N 59°35' E 024°51'510.4
2017-Jun-25 01:31N 59°31' E 024°58'1 2.1
2017-Jun-25 01:00N 59°30' E 024°56'0 0.0
2017-Jun-25 00:30N 59°30' E 024°56'0 0.0
2017-Jun-25 00:00N 59°30' E 024°56'0 0.0
2017-Jun-24 23:30N 59°30' E 024°56'0 0.0
2017-Jun-24 23:00N 59°30' E 024°56'0 0.0
2017-Jun-24 22:30N 59°30' E 024°56'0 0.0
2017-Jun-24 22:00N 59°30' E 024°56'0 0.0
2017-Jun-24 21:30N 59°30' E 024°56'0 0.0
2017-Jun-24 21:00N 59°30' E 024°56'0 0.0
2017-Jun-24 20:30N 59°30' E 024°56'0 0.0
2017-Jun-24 20:00N 59°30' E 024°56'0 0.0
2017-Jun-24 19:30N 59°30' E 024°56'0 0.0
2017-Jun-24 19:00N 59°30' E 024°56'0 0.0
2017-Jun-24 18:30N 59°30' E 024°56'0 0.0
2017-Jun-24 18:00N 59°30' E 024°56'0 0.0
2017-Jun-24 17:30N 59°30' E 024°56'0 0.0
2017-Jun-24 17:00N 59°30' E 024°56'0 0.0
2017-Jun-24 16:30N 59°30' E 024°56'0 0.0
2017-Jun-24 16:00N 59°30' E 024°56'0 0.0
2017-Jun-24 15:30N 59°30' E 024°56'0 0.0
2017-Jun-24 15:00N 59°30' E 024°56'0 0.0
2017-Jun-24 14:30N 59°30' E 024°56'0 0.0
2017-Jun-24 13:30N 59°30' E 024°56'0 0.0
2017-Jun-24 13:00N 59°30' E 024°56'0 0.0
2017-Jun-24 12:30N 59°30' E 024°56'0 0.0
2017-Jun-24 12:01N 59°30' E 024°56'0 0.0
2017-Jun-24 11:30N 59°30' E 024°56'0 0.0
2017-Jun-24 11:00N 59°30' E 024°56'0 0.0
2017-Jun-24 10:30N 59°30' E 024°56'0 0.0
2017-Jun-24 10:00N 59°30' E 024°56'0 0.0
2017-Jun-24 09:30N 59°30' E 024°56'0 0.0
2017-Jun-24 09:00N 59°30' E 024°56'0 0.0
2017-Jun-24 08:30N 59°30' E 024°56'0 0.0
2017-Jun-24 08:00N 59°30' E 024°56'0 0.0
2017-Jun-24 07:30N 59°30' E 024°56'0 0.0
2017-Jun-24 07:00N 59°30' E 024°56'0 0.0
2017-Jun-24 06:30N 59°30' E 024°56'0 0.0
2017-Jun-24 06:00N 59°30' E 024°56'0 0.6
2017-Jun-24 05:31N 59°30' E 024°57'0 0.5
2017-Jun-24 05:00N 59°30' E 024°57'0 1.0
2017-Jun-24 04:30N 59°30' E 024°56'0 0.0
2017-Jun-24 04:00N 59°30' E 024°56'0 0.0
2017-Jun-24 03:30N 59°30' E 024°56'0 0.0
2017-Jun-24 03:00N 59°30' E 024°56'0 0.0
2017-Jun-24 02:30N 59°30' E 024°56'0 0.0
2017-Jun-24 02:00N 59°30' E 024°56'0 0.0
2017-Jun-24 01:30N 59°30' E 024°56'0 0.0
2017-Jun-24 01:00N 59°30' E 024°56'0 0.0
2017-Jun-24 00:30N 59°30' E 024°56'0 0.0
2017-Jun-24 00:00N 59°30' E 024°56'0 0.0
2017-Jun-23 23:30N 59°30' E 024°56'0 0.0
2017-Jun-23 23:00N 59°30' E 024°56'0 0.0
2017-Jun-23 22:30N 59°30' E 024°56'0 0.0
2017-Jun-23 22:00N 59°30' E 024°56'0 0.0
2017-Jun-23 21:30N 59°30' E 024°56'0 0.0
2017-Jun-23 21:00N 59°30' E 024°56'0 0.0
2017-Jun-23 20:30N 59°30' E 024°56'0 0.0
2017-Jun-23 20:00N 59°30' E 024°56'0 0.0
2017-Jun-23 19:30N 59°30' E 024°56'0 0.0
2017-Jun-23 19:00N 59°30' E 024°56'0 0.0
2017-Jun-23 18:30N 59°30' E 024°56'0 0.0
2017-Jun-23 18:00N 59°30' E 024°56'0 0.0
2017-Jun-23 17:30N 59°30' E 024°56'0 0.0
2017-Jun-23 17:00N 59°30' E 024°56'0 0.0
2017-Jun-23 16:30N 59°30' E 024°56'0 0.0
2017-Jun-23 16:00N 59°30' E 024°56'0 0.0
2017-Jun-23 15:30N 59°30' E 024°56'0 0.0
2017-Jun-23 15:00N 59°30' E 024°56'0 0.0
2017-Jun-23 14:00N 59°30' E 024°56'0 0.0
2017-Jun-23 13:30N 59°30' E 024°56'0 0.0
2017-Jun-23 13:00N 59°30' E 024°56'0 0.0
2017-Jun-23 12:30N 59°30' E 024°56'0 0.0
2017-Jun-23 12:00N 59°30' E 024°56'0 0.0
2017-Jun-23 11:31N 59°30' E 024°56'0 0.0
2017-Jun-23 11:00N 59°30' E 024°56'0 0.0
2017-Jun-23 10:31N 59°30' E 024°56'0 0.0
2017-Jun-23 10:00N 59°30' E 024°56'0 0.0
2017-Jun-23 09:30N 59°30' E 024°56'0 0.0
2017-Jun-23 09:00N 59°30' E 024°56'0 0.0
2017-Jun-23 08:30N 59°30' E 024°56'0 0.0
2017-Jun-23 08:00N 59°30' E 024°56'0 0.0
2017-Jun-23 07:30N 59°30' E 024°56'0 0.0
2017-Jun-23 07:00N 59°30' E 024°56'0 0.0
2017-Jun-23 06:30N 59°30' E 024°56'0 0.0
2017-Jun-23 06:00N 59°30' E 024°56'0 0.0
2017-Jun-23 05:30N 59°30' E 024°56'0 0.0
2017-Jun-23 05:00N 59°30' E 024°56'0 0.0
2017-Jun-23 04:30N 59°30' E 024°56'0 0.0
2017-Jun-23 04:00N 59°30' E 024°56'0 0.0
2017-Jun-23 03:31N 59°30' E 024°56'0 0.0
2017-Jun-23 03:00N 59°30' E 024°56'0 0.0
2017-Jun-23 02:30N 59°30' E 024°56'0 0.0
2017-Jun-23 02:00N 59°30' E 024°56'0 0.0
2017-Jun-23 01:30N 59°30' E 024°56'0 0.0
2017-Jun-23 01:00N 59°30' E 024°56'0 0.0
2017-Jun-23 00:30N 59°30' E 024°56'0 0.0
2017-Jun-23 00:00N 59°30' E 024°56'0 0.0
2017-Jun-22 23:30N 59°30' E 024°56'0 0.0
2017-Jun-22 23:00N 59°30' E 024°56'0 0.0
2017-Jun-22 22:30N 59°30' E 024°56'0 0.0
2017-Jun-22 22:00N 59°30' E 024°56'0 0.0
2017-Jun-22 21:30N 59°30' E 024°56'0 0.0
2017-Jun-22 21:00N 59°30' E 024°56'0 0.0
2017-Jun-22 20:30N 59°30' E 024°56'0 0.0
2017-Jun-22 20:01N 59°30' E 024°56'0 0.0
2017-Jun-22 19:30N 59°30' E 024°56'0 0.0
2017-Jun-22 19:00N 59°30' E 024°56'0 0.0
2017-Jun-22 18:30N 59°30' E 024°56'0 0.0
2017-Jun-22 18:00N 59°30' E 024°56'0 0.0
2017-Jun-22 17:30N 59°30' E 024°56'0 0.0
2017-Jun-22 17:00N 59°30' E 024°56'0 0.0
2017-Jun-22 16:30N 59°30' E 024°56'0 0.0
2017-Jun-22 16:00N 59°30' E 024°56'0 0.0
2017-Jun-22 15:30N 59°30' E 024°56'0 0.0
2017-Jun-22 15:00N 59°30' E 024°56'0 0.0
2017-Jun-22 14:00N 59°30' E 024°56'1 1.5
2017-Jun-22 13:31N 59°30' E 024°58'1 1.1
2017-Jun-22 13:00N 59°30' E 024°57'0 1.0
2017-Jun-22 12:30N 59°30' E 024°56'0 0.0
2017-Jun-22 12:00N 59°30' E 024°56'0 0.0
2017-Jun-22 11:30N 59°30' E 024°56'0 0.0
2017-Jun-22 11:00N 59°30' E 024°56'0 0.0
2017-Jun-22 10:30N 59°30' E 024°56'0 0.0
2017-Jun-22 10:00N 59°30' E 024°56'0 0.0
2017-Jun-22 09:31N 59°30' E 024°56'0 0.0
2017-Jun-22 09:01N 59°30' E 024°56'0 0.2
2017-Jun-22 08:30N 59°30' E 024°57'0 0.7
2017-Jun-22 08:01N 59°30' E 024°57'0 0.7
2017-Jun-22 07:30N 59°30' E 024°56'0 0.0
2017-Jun-22 07:00N 59°30' E 024°56'0 0.0
2017-Jun-22 06:31N 59°30' E 024°56'0 0.0
2017-Jun-22 06:00N 59°30' E 024°56'0 0.0
2017-Jun-22 05:30N 59°30' E 024°56'0 0.0
2017-Jun-22 05:01N 59°30' E 024°56'0 0.0
2017-Jun-22 04:30N 59°30' E 024°56'0 0.0
2017-Jun-22 04:00N 59°30' E 024°56'0 0.0
2017-Jun-22 03:30N 59°30' E 024°56'0 0.0
2017-Jun-22 03:00N 59°30' E 024°56'0 0.0
2017-Jun-22 02:31N 59°30' E 024°56'0 0.0
2017-Jun-22 02:00N 59°30' E 024°56'0 0.0
2017-Jun-22 01:30N 59°30' E 024°56'0 0.0
2017-Jun-22 01:01N 59°30' E 024°56'0 0.0
2017-Jun-22 00:31N 59°30' E 024°56'0 0.0
2017-Jun-22 00:01N 59°30' E 024°56'0 0.0
2017-Jun-21 23:30N 59°30' E 024°56'0 0.0
2017-Jun-21 23:00N 59°30' E 024°56'0 0.0
2017-Jun-21 22:31N 59°30' E 024°56'0 0.0
2017-Jun-21 22:00N 59°30' E 024°56'0 0.0
2017-Jun-21 21:31N 59°30' E 024°56'0 0.0
2017-Jun-21 21:01N 59°30' E 024°56'0 0.0
2017-Jun-21 20:31N 59°30' E 024°56'0 0.0
2017-Jun-21 20:00N 59°30' E 024°56'0 0.0
2017-Jun-21 19:31N 59°30' E 024°56'0 0.0
2017-Jun-21 19:01N 59°30' E 024°56'0 0.0
2017-Jun-21 18:30N 59°30' E 024°56'0 0.0
2017-Jun-21 18:01N 59°30' E 024°56'0 0.0
2017-Jun-21 17:30N 59°30' E 024°56'0 0.0
2017-Jun-21 17:00N 59°30' E 024°56'0 0.0
2017-Jun-21 16:30N 59°30' E 024°56'0 0.0
2017-Jun-21 16:01N 59°30' E 024°56'0 0.0
2017-Jun-21 15:30N 59°30' E 024°56'0 0.0
2017-Jun-21 15:01N 59°30' E 024°56'0 0.0
2017-Jun-21 14:31N 59°30' E 024°56'0 0.0
2017-Jun-21 13:30N 59°30' E 024°56'0 0.0
2017-Jun-21 13:00N 59°30' E 024°56'0 0.0
2017-Jun-21 12:31N 59°30' E 024°56'0 0.0
2017-Jun-21 12:00N 59°30' E 024°56'0 0.0
2017-Jun-21 11:31N 59°30' E 024°56'0 0.0
2017-Jun-21 11:00N 59°30' E 024°56'0 0.0
2017-Jun-21 10:30N 59°30' E 024°56'0 0.0
2017-Jun-21 10:01N 59°30' E 024°56'0 0.0
2017-Jun-21 09:31N 59°30' E 024°56'0 0.3
2017-Jun-21 09:00N 59°30' E 024°57'0 0.7
2017-Jun-21 08:30N 59°30' E 024°57'0 1.0
2017-Jun-21 08:01N 59°30' E 024°56'0 0.0
2017-Jun-21 07:31N 59°30' E 024°56'0 0.0
2017-Jun-21 07:00N 59°30' E 024°56'0 0.0
2017-Jun-21 06:30N 59°30' E 024°56'0 0.0
2017-Jun-21 06:01N 59°30' E 024°56'0 0.0
2017-Jun-21 05:30N 59°30' E 024°56'0 0.0
2017-Jun-21 05:01N 59°30' E 024°56'0 0.0
2017-Jun-21 04:31N 59°30' E 024°56'1 1.7
2017-Jun-21 04:01N 59°29' E 024°58'1 1.7
2017-Jun-21 03:31N 59°30' E 024°58'1 1.8
2017-Jun-21 03:01N 59°30' E 024°56'0 0.0
2017-Jun-21 02:31N 59°30' E 024°56'0 0.0
2017-Jun-21 02:01N 59°30' E 024°56'0 0.0
2017-Jun-21 01:31N 59°30' E 024°56'0 0.0
2017-Jun-21 01:00N 59°30' E 024°56'0 0.0
2017-Jun-21 00:31N 59°30' E 024°56'0 0.0
2017-Jun-21 00:00N 59°30' E 024°56'0 0.0
2017-Jun-20 23:31N 59°30' E 024°56'0 0.0
2017-Jun-20 23:01N 59°30' E 024°56'0 0.0
2017-Jun-20 22:30N 59°30' E 024°56'0 0.0
2017-Jun-20 22:01N 59°30' E 024°56'0 0.0
2017-Jun-20 21:31N 59°30' E 024°56'0 0.0
2017-Jun-20 21:01N 59°30' E 024°56'0 0.0
2017-Jun-20 20:31N 59°30' E 024°56'0 0.0
2017-Jun-20 20:00N 59°30' E 024°56'4 7.7
2017-Jun-20 19:30N 59°33' E 024°53'510.1
2017-Jun-20 19:01N 59°37' E 024°46'2 4.9
2017-Jun-20 18:31N 59°35' E 024°42'5 9.5
2017-Jun-20 18:01N 59°30' E 024°45'4 7.6
2017-Jun-20 17:31N 59°27' E 024°46'0 0.0
2017-Jun-20 17:00N 59°27' E 024°46'0 0.0
2017-Jun-20 16:31N 59°27' E 024°46'0 0.5
2017-Jun-20 16:00N 59°27' E 024°46'0 0.5
2017-Jun-20 15:30N 59°27' E 024°46'0 0.6
2017-Jun-20 15:01N 59°27' E 024°46'0 0.6
2017-Jun-20 14:31N 59°27' E 024°46'0 0.3
2017-Jun-20 13:30N 59°27' E 024°46'0 0.6
2017-Jun-20 13:00N 59°27' E 024°46'0 0.0
2017-Jun-20 12:30N 59°27' E 024°46'0 0.0
2017-Jun-20 12:00N 59°27' E 024°46'0 0.0
2017-Jun-20 11:30N 59°27' E 024°46'0 0.0
2017-Jun-20 11:00N 59°27' E 024°46'0 0.0
2017-Jun-20 10:30N 59°27' E 024°46'0 0.0
2017-Jun-20 10:00N 59°27' E 024°46'0 0.0
2017-Jun-20 09:30N 59°27' E 024°46'0 0.0
2017-Jun-20 09:00N 59°27' E 024°46'0 0.0
2017-Jun-20 08:31N 59°27' E 024°46'4 7.1
2017-Jun-20 08:00N 59°30' E 024°46'5 9.0
2017-Jun-20 07:30N 59°34' E 024°43'3 5.1
2017-Jun-20 07:00N 59°36' E 024°47'510.7
2017-Jun-20 06:30N 59°33' E 024°55'3 5.7
2017-Jun-20 06:00N 59°30' E 024°56'0 0.0
2017-Jun-20 05:30N 59°30' E 024°56'0 0.0
2017-Jun-20 05:00N 59°30' E 024°56'0 0.0
2017-Jun-20 04:30N 59°30' E 024°56'0 0.0
2017-Jun-20 04:00N 59°30' E 024°56'0 0.0
2017-Jun-20 03:30N 59°30' E 024°56'0 0.0
2017-Jun-20 03:00N 59°30' E 024°56'0 0.0
2017-Jun-20 02:30N 59°30' E 024°56'0 0.0
2017-Jun-20 02:00N 59°30' E 024°56'0 0.0
2017-Jun-20 01:30N 59°30' E 024°56'0 0.0
2017-Jun-20 01:00N 59°30' E 024°56'0 0.0
2017-Jun-20 00:30N 59°30' E 024°56'0 0.0
2017-Jun-20 00:01N 59°30' E 024°56'0 0.0
2017-Jun-19 23:30N 59°30' E 024°56'0 0.0
2017-Jun-19 23:00N 59°30' E 024°56'0 0.0
2017-Jun-19 22:30N 59°30' E 024°56'0 0.0
2017-Jun-19 22:00N 59°30' E 024°56'0 0.0
2017-Jun-19 21:30N 59°30' E 024°56'0 0.0
2017-Jun-19 21:00N 59°30' E 024°56'0 0.0
2017-Jun-19 20:30N 59°30' E 024°56'0 0.0
2017-Jun-19 20:00N 59°30' E 024°56'1 1.1
2017-Jun-19 19:30N 59°30' E 024°58'0 0.0
2017-Jun-19 19:00N 59°30' E 024°58'0 0.6
2017-Jun-19 18:30N 59°30' E 024°58'1 1.3
2017-Jun-19 18:00N 59°30' E 024°56'0 0.0
2017-Jun-19 17:30N 59°30' E 024°56'1 1.3
2017-Jun-19 17:01N 59°30' E 024°58'1 2.3
2017-Jun-19 16:31N 59°31' E 024°57'1 2.1
2017-Jun-19 16:00N 59°30' E 024°56'0 0.0
2017-Jun-19 15:30N 59°30' E 024°56'0 0.0
2017-Jun-19 15:00N 59°30' E 024°56'0 0.0
2017-Jun-19 14:00N 59°30' E 024°56'0 0.0
2017-Jun-19 13:30N 59°30' E 024°56'0 0.0
2017-Jun-19 13:00N 59°30' E 024°56'0 0.0
2017-Jun-19 12:30N 59°30' E 024°56'0 0.0
2017-Jun-19 12:00N 59°30' E 024°56'0 0.0
2017-Jun-19 11:30N 59°30' E 024°56'0 0.0
2017-Jun-19 11:00N 59°30' E 024°56'0 0.0
2017-Jun-19 10:30N 59°30' E 024°56'0 0.2
2017-Jun-19 10:01N 59°30' E 024°57'0 0.4
2017-Jun-19 09:30N 59°30' E 024°57'0 0.3
2017-Jun-19 09:00N 59°30' E 024°56'0 0.0
2017-Jun-19 08:30N 59°30' E 024°56'0 0.0
2017-Jun-19 08:00N 59°30' E 024°56'0 0.0
2017-Jun-19 07:30N 59°30' E 024°56'  
Track history (hours):
 
Tides and Currents Weather Stations Pressure Air Temp Water Temp Dewpoint Dewpoint Depression Visibility Wind Speed Wind Dir Waves Ship Positions

H.kanter

Last reported at 2017-Jun-29 07:01 UTC. Time now 2017-Jun-29 07:25 UTC.
Position N 59°30' E 024°57'.

Length 33 m; draft 4.8 m.

Type: Tug. MMSI: 276504000.

Date/timePositionNaut miles runAvg speedWind from/ knotsBaromVisibWave heightAir tempDewpointWater temp
2017-Jun-29 07:01N 59°30' E 024°57'0 0.3
2017-Jun-29 06:31N 59°30' E 024°56'0 0.0
2017-Jun-29 06:00N 59°30' E 024°56'0 0.0
2017-Jun-29 05:30N 59°30' E 024°56'0 0.0
2017-Jun-29 05:00N 59°30' E 024°56'0 0.0
2017-Jun-29 04:30N 59°30' E 024°56'0 0.0
2017-Jun-29 04:01N 59°30' E 024°56'0 0.0
2017-Jun-29 03:31N 59°30' E 024°56'0 0.0
2017-Jun-29 03:01N 59°30' E 024°56'0 0.0
2017-Jun-29 02:31N 59°30' E 024°56'0 0.0
2017-Jun-29 02:00N 59°30' E 024°56'0 0.0
2017-Jun-29 01:31N 59°30' E 024°56'0 0.0
2017-Jun-29 01:00N 59°30' E 024°56'0 0.0
2017-Jun-29 00:31N 59°30' E 024°56'0 0.0
2017-Jun-29 00:01N 59°30' E 024°56'0 0.0
2017-Jun-28 23:30N 59°30' E 024°56'0 0.0
2017-Jun-28 23:01N 59°30' E 024°56'0 0.0
2017-Jun-28 22:31N 59°30' E 024°56'0 0.0
2017-Jun-28 22:01N 59°30' E 024°56'0 0.0
2017-Jun-28 21:31N 59°30' E 024°56'0 0.0
2017-Jun-28 21:00N 59°30' E 024°56'0 0.0
2017-Jun-28 20:31N 59°30' E 024°56'0 0.0
2017-Jun-28 20:00N 59°30' E 024°56'0 0.2
2017-Jun-28 19:30N 59°30' E 024°57'2 3.1
2017-Jun-28 19:01N 59°31' E 024°59'2 3.3
2017-Jun-28 18:30N 59°30' E 024°56'0 0.0
2017-Jun-28 18:01N 59°30' E 024°56'0 0.0
2017-Jun-28 17:30N 59°30' E 024°56'0 0.0
2017-Jun-28 17:01N 59°30' E 024°56'0 0.0
2017-Jun-28 16:31N 59°30' E 024°56'0 0.0
2017-Jun-28 16:00N 59°30' E 024°56'0 0.0
2017-Jun-28 15:31N 59°30' E 024°56'0 0.0
2017-Jun-28 15:01N 59°30' E 024°56'0 0.0
2017-Jun-28 14:01N 59°30' E 024°56'0 0.0
2017-Jun-28 13:30N 59°30' E 024°56'0 0.0
2017-Jun-28 13:00N 59°30' E 024°56'0 0.0
2017-Jun-28 12:31N 59°30' E 024°56'0 0.0
2017-Jun-28 12:00N 59°30' E 024°56'0 0.0
2017-Jun-28 11:31N 59°30' E 024°56'0 0.0
2017-Jun-28 11:00N 59°30' E 024°56'0 0.0
2017-Jun-28 10:31N 59°30' E 024°56'0 0.0
2017-Jun-28 10:01N 59°30' E 024°56'0 0.0
2017-Jun-28 09:31N 59°30' E 024°56'0 0.0
2017-Jun-28 09:00N 59°30' E 024°56'0 0.0
2017-Jun-28 08:31N 59°30' E 024°56'0 0.0
2017-Jun-28 08:01N 59°30' E 024°56'0 0.0
2017-Jun-28 07:31N 59°30' E 024°56'0 0.0
2017-Jun-28 07:00N 59°30' E 024°56'0 0.0
2017-Jun-28 06:31N 59°30' E 024°56'0 0.0
2017-Jun-28 06:01N 59°30' E 024°56'0 0.0
2017-Jun-28 05:31N 59°30' E 024°56'0 0.0
2017-Jun-28 05:00N 59°30' E 024°56'0 0.0
2017-Jun-28 04:31N 59°30' E 024°56'0 0.0
2017-Jun-28 04:01N 59°30' E 024°56'0 0.0
2017-Jun-28 03:31N 59°30' E 024°56'0 0.0
2017-Jun-28 03:01N 59°30' E 024°56'0 0.0
2017-Jun-28 02:31N 59°30' E 024°56'0 0.0
2017-Jun-28 02:01N 59°30' E 024°56'0 0.0
2017-Jun-28 01:31N 59°30' E 024°56'0 0.0
2017-Jun-28 01:01N 59°30' E 024°56'0 0.0
2017-Jun-28 00:30N 59°30' E 024°56'0 0.0
2017-Jun-28 00:01N 59°30' E 024°56'0 0.0
2017-Jun-27 23:31N 59°30' E 024°56'0 0.0
2017-Jun-27 23:00N 59°30' E 024°56'0 0.0
2017-Jun-27 22:30N 59°30' E 024°56'0 0.0
2017-Jun-27 22:01N 59°30' E 024°56'1 1.5
2017-Jun-27 21:31N 59°30' E 024°58'0 0.2
2017-Jun-27 21:01N 59°30' E 024°58'1 1.6
2017-Jun-27 20:31N 59°30' E 024°56'0 0.0
2017-Jun-27 20:01N 59°30' E 024°56'0 0.0
2017-Jun-27 19:31N 59°30' E 024°56'0 0.0
2017-Jun-27 19:00N 59°30' E 024°56'0 0.0
2017-Jun-27 18:31N 59°30' E 024°56'0 0.0
2017-Jun-27 18:01N 59°30' E 024°56'0 0.0
2017-Jun-27 17:30N 59°30' E 024°56'0 0.0
2017-Jun-27 17:01N 59°30' E 024°56'0 0.0
2017-Jun-27 16:31N 59°30' E 024°56'0 0.0
2017-Jun-27 16:01N 59°30' E 024°56'0 0.0
2017-Jun-27 15:31N 59°30' E 024°56'0 0.0
2017-Jun-27 15:00N 59°30' E 024°56'0 0.0
2017-Jun-27 14:00N 59°30' E 024°56'0 0.0
2017-Jun-27 13:30N 59°30' E 024°56'0 0.0
2017-Jun-27 13:01N 59°30' E 024°56'0 0.0
2017-Jun-27 12:30N 59°30' E 024°56'0 0.0
2017-Jun-27 12:00N 59°30' E 024°56'0 0.0
2017-Jun-27 11:31N 59°30' E 024°56'0 0.0
2017-Jun-27 11:00N 59°30' E 024°56'4 8.0
2017-Jun-27 10:31N 59°33' E 024°54'611.0
2017-Jun-27 10:00N 59°37' E 024°46'611.2
2017-Jun-27 09:30N 59°38' E 024°35'510.6
2017-Jun-27 09:00N 59°36' E 024°25'510.8
2017-Jun-27 08:30N 59°33' E 024°17'510.8
2017-Jun-27 08:00N 59°29' E 024°09'611.1
2017-Jun-27 07:30N 59°25' E 024°01'510.2
2017-Jun-27 07:01N 59°20' E 024°03'1 1.0
2017-Jun-27 06:23N 59°20' E 024°05'0 0.0
2017-Jun-27 02:13N 59°20' E 024°05'0 0.0
2017-Jun-27 01:19N 59°20' E 024°05'0 0.0
2017-Jun-27 01:00N 59°20' E 024°05'0 0.0
2017-Jun-27 00:14N 59°20' E 024°05'0 2.0
2017-Jun-27 00:00N 59°20' E 024°04'0 0.7
2017-Jun-26 23:30N 59°20' E 024°05'0 0.0
2017-Jun-26 23:01N 59°20' E 024°05'0 0.1
2017-Jun-26 20:07N 59°20' E 024°05'1 6.5
2017-Jun-26 20:01N 59°20' E 024°03'5 9.8
2017-Jun-26 19:30N 59°25' E 024°01'510.1
2017-Jun-26 19:00N 59°29' E 024°08'510.3
2017-Jun-26 18:31N 59°32' E 024°15'510.4
2017-Jun-26 18:01N 59°36' E 024°23'5 9.6
2017-Jun-26 17:30N 59°38' E 024°31'510.3
2017-Jun-26 17:01N 59°38' E 024°41'1 2.6
2017-Jun-26 16:30N 59°38' E 024°39'510.8
2017-Jun-26 16:01N 59°38' E 024°28'2 4.0
2017-Jun-26 15:30N 59°37' E 024°25'5 9.5
2017-Jun-26 15:00N 59°38' E 024°34'510.4
2017-Jun-26 14:31N 59°38' E 024°44'1010.0
2017-Jun-26 13:30N 59°31' E 024°58'1 2.0
2017-Jun-26 13:00N 59°30' E 024°56'0 0.0
2017-Jun-26 12:30N 59°30' E 024°56'0 0.0
2017-Jun-26 11:58N 59°30' E 024°56'0 0.0
2017-Jun-26 11:28N 59°30' E 024°56'0 0.0
2017-Jun-26 10:58N 59°30' E 024°56'0 0.0
2017-Jun-26 10:29N 59°30' E 024°56'1 1.5
2017-Jun-26 10:00N 59°30' E 024°58'1 1.0
2017-Jun-26 09:30N 59°30' E 024°58'1 1.6
2017-Jun-26 08:58N 59°30' E 024°56'0 0.0
2017-Jun-26 08:29N 59°30' E 024°56'0 0.0
2017-Jun-26 07:59N 59°30' E 024°56'0 0.0
2017-Jun-26 07:29N 59°30' E 024°56'0 0.0
2017-Jun-26 07:00N 59°30' E 024°56'0 0.0
2017-Jun-26 06:30N 59°30' E 024°56'0 0.0
2017-Jun-26 06:00N 59°30' E 024°56'0 0.0
2017-Jun-26 05:28N 59°30' E 024°56'0 0.0
2017-Jun-26 04:58N 59°30' E 024°56'0 0.0
2017-Jun-26 04:28N 59°30' E 024°56'0 0.0
2017-Jun-26 03:59N 59°30' E 024°56'0 0.0
2017-Jun-26 03:29N 59°30' E 024°56'0 0.0
2017-Jun-26 02:59N 59°30' E 024°56'0 0.0
2017-Jun-26 02:30N 59°30' E 024°56'0 0.0
2017-Jun-26 02:00N 59°30' E 024°56'0 0.0
2017-Jun-26 01:30N 59°30' E 024°56'0 0.0
2017-Jun-26 00:58N 59°30' E 024°56'0 0.0
2017-Jun-26 00:28N 59°30' E 024°56'0 0.0
2017-Jun-25 23:58N 59°30' E 024°56'0 0.0
2017-Jun-25 23:29N 59°30' E 024°56'0 0.0
2017-Jun-25 22:59N 59°30' E 024°56'0 0.0
2017-Jun-25 22:29N 59°30' E 024°56'0 0.0
2017-Jun-25 22:00N 59°30' E 024°56'0 0.0
2017-Jun-25 21:30N 59°30' E 024°56'0 0.0
2017-Jun-25 21:00N 59°30' E 024°56'0 0.0
2017-Jun-25 20:28N 59°30' E 024°56'0 0.0
2017-Jun-25 19:58N 59°30' E 024°56'0 0.0
2017-Jun-25 19:28N 59°30' E 024°56'0 0.0
2017-Jun-25 18:59N 59°30' E 024°56'0 0.0
2017-Jun-25 18:29N 59°30' E 024°56'0 0.0
2017-Jun-25 17:59N 59°30' E 024°56'0 0.0
2017-Jun-25 17:30N 59°30' E 024°56'0 0.0
2017-Jun-25 17:00N 59°30' E 024°56'0 0.0
2017-Jun-25 16:30N 59°30' E 024°56'0 0.0
2017-Jun-25 15:58N 59°30' E 024°56'0 0.0
2017-Jun-25 15:28N 59°30' E 024°56'0 0.0
2017-Jun-25 14:58N 59°30' E 024°56'0 0.0
2017-Jun-25 14:29N 59°30' E 024°56'0 0.0
2017-Jun-25 13:29N 59°30' E 024°56'0 0.0
2017-Jun-25 13:00N 59°30' E 024°56'0 0.0
2017-Jun-25 12:30N 59°30' E 024°56'0 0.0
2017-Jun-25 12:00N 59°30' E 024°56'1 1.5
2017-Jun-25 11:31N 59°30' E 024°58'510.6
2017-Jun-25 11:00N 59°35' E 024°52'510.6
2017-Jun-25 10:30N 59°37' E 024°42'510.9
2017-Jun-25 10:01N 59°38' E 024°32'510.5
2017-Jun-25 09:30N 59°36' E 024°23'611.1
2017-Jun-25 09:00N 59°32' E 024°15'611.1
2017-Jun-25 08:31N 59°28' E 024°07'510.8
2017-Jun-25 08:01N 59°24' E 024°01'4 8.7
2017-Jun-25 07:31N 59°20' E 024°05'0 0.1
2017-Jun-25 07:00N 59°20' E 024°05'1 2.3
2017-Jun-25 06:30N 59°20' E 024°02'0 0.9
2017-Jun-25 06:01N 59°20' E 024°03'1 2.3
2017-Jun-25 05:30N 59°21' E 024°02'5 9.8
2017-Jun-25 05:00N 59°26' E 024°03'510.5
2017-Jun-25 04:30N 59°30' E 024°10'510.5
2017-Jun-25 04:00N 59°33' E 024°18'510.4
2017-Jun-25 03:30N 59°37' E 024°25'5 9.3
2017-Jun-25 03:00N 59°38' E 024°34'510.3
2017-Jun-25 02:30N 59°38' E 024°44'510.0
2017-Jun-25 02:00N 59°35' E 024°51'510.4
2017-Jun-25 01:31N 59°31' E 024°58'1 2.1
2017-Jun-25 01:00N 59°30' E 024°56'0 0.0
2017-Jun-25 00:30N 59°30' E 024°56'0 0.0
2017-Jun-25 00:00N 59°30' E 024°56'0 0.0
2017-Jun-24 23:30N 59°30' E 024°56'0 0.0
2017-Jun-24 23:00N 59°30' E 024°56'0 0.0
2017-Jun-24 22:30N 59°30' E 024°56'0 0.0
2017-Jun-24 22:00N 59°30' E 024°56'0 0.0
2017-Jun-24 21:30N 59°30' E 024°56'0 0.0
2017-Jun-24 21:00N 59°30' E 024°56'0 0.0
2017-Jun-24 20:30N 59°30' E 024°56'0 0.0
2017-Jun-24 20:00N 59°30' E 024°56'0 0.0
2017-Jun-24 19:30N 59°30' E 024°56'0 0.0
2017-Jun-24 19:00N 59°30' E 024°56'0 0.0
2017-Jun-24 18:30N 59°30' E 024°56'0 0.0
2017-Jun-24 18:00N 59°30' E 024°56'0 0.0
2017-Jun-24 17:30N 59°30' E 024°56'0 0.0
2017-Jun-24 17:00N 59°30' E 024°56'0 0.0
2017-Jun-24 16:30N 59°30' E 024°56'0 0.0
2017-Jun-24 16:00N 59°30' E 024°56'0 0.0
2017-Jun-24 15:30N 59°30' E 024°56'0 0.0
2017-Jun-24 15:00N 59°30' E 024°56'0 0.0
2017-Jun-24 14:30N 59°30' E 024°56'0 0.0
2017-Jun-24 13:30N 59°30' E 024°56'0 0.0
2017-Jun-24 13:00N 59°30' E 024°56'0 0.0
2017-Jun-24 12:30N 59°30' E 024°56'0 0.0
2017-Jun-24 12:01N 59°30' E 024°56'0 0.0
2017-Jun-24 11:30N 59°30' E 024°56'0 0.0
2017-Jun-24 11:00N 59°30' E 024°56'0 0.0
2017-Jun-24 10:30N 59°30' E 024°56'0 0.0
2017-Jun-24 10:00N 59°30' E 024°56'0 0.0
2017-Jun-24 09:30N 59°30' E 024°56'0 0.0
2017-Jun-24 09:00N 59°30' E 024°56'0 0.0
2017-Jun-24 08:30N 59°30' E 024°56'0 0.0
2017-Jun-24 08:00N 59°30' E 024°56'0 0.0
2017-Jun-24 07:30N 59°30' E 024°56'0 0.0
2017-Jun-24 07:00N 59°30' E 024°56'0 0.0
2017-Jun-24 06:30N 59°30' E 024°56'0 0.0
2017-Jun-24 06:00N 59°30' E 024°56'0 0.6
2017-Jun-24 05:31N 59°30' E 024°57'0 0.5
2017-Jun-24 05:00N 59°30' E 024°57'0 1.0
2017-Jun-24 04:30N 59°30' E 024°56'0 0.0
2017-Jun-24 04:00N 59°30' E 024°56'0 0.0
2017-Jun-24 03:30N 59°30' E 024°56'0 0.0
2017-Jun-24 03:00N 59°30' E 024°56'0 0.0
2017-Jun-24 02:30N 59°30' E 024°56'0 0.0
2017-Jun-24 02:00N 59°30' E 024°56'0 0.0
2017-Jun-24 01:30N 59°30' E 024°56'0 0.0
2017-Jun-24 01:00N 59°30' E 024°56'0 0.0
2017-Jun-24 00:30N 59°30' E 024°56'0 0.0
2017-Jun-24 00:00N 59°30' E 024°56'0 0.0
2017-Jun-23 23:30N 59°30' E 024°56'0 0.0
2017-Jun-23 23:00N 59°30' E 024°56'0 0.0
2017-Jun-23 22:30N 59°30' E 024°56'0 0.0
2017-Jun-23 22:00N 59°30' E 024°56'0 0.0
2017-Jun-23 21:30N 59°30' E 024°56'0 0.0
2017-Jun-23 21:00N 59°30' E 024°56'0 0.0
2017-Jun-23 20:30N 59°30' E 024°56'0 0.0
2017-Jun-23 20:00N 59°30' E 024°56'0 0.0
2017-Jun-23 19:30N 59°30' E 024°56'0 0.0
2017-Jun-23 19:00N 59°30' E 024°56'0 0.0
2017-Jun-23 18:30N 59°30' E 024°56'0 0.0
2017-Jun-23 18:00N 59°30' E 024°56'0 0.0
2017-Jun-23 17:30N 59°30' E 024°56'0 0.0
2017-Jun-23 17:00N 59°30' E 024°56'0 0.0
2017-Jun-23 16:30N 59°30' E 024°56'0 0.0
2017-Jun-23 16:00N 59°30' E 024°56'0 0.0
2017-Jun-23 15:30N 59°30' E 024°56'0 0.0
2017-Jun-23 15:00N 59°30' E 024°56'0 0.0
2017-Jun-23 14:00N 59°30' E 024°56'0 0.0
2017-Jun-23 13:30N 59°30' E 024°56'0 0.0
2017-Jun-23 13:00N 59°30' E 024°56'0 0.0
2017-Jun-23 12:30N 59°30' E 024°56'0 0.0
2017-Jun-23 12:00N 59°30' E 024°56'0 0.0
2017-Jun-23 11:31N 59°30' E 024°56'0 0.0
2017-Jun-23 11:00N 59°30' E 024°56'0 0.0
2017-Jun-23 10:31N 59°30' E 024°56'0 0.0
2017-Jun-23 10:00N 59°30' E 024°56'0 0.0
2017-Jun-23 09:30N 59°30' E 024°56'0 0.0
2017-Jun-23 09:00N 59°30' E 024°56'0 0.0
2017-Jun-23 08:30N 59°30' E 024°56'0 0.0
2017-Jun-23 08:00N 59°30' E 024°56'0 0.0
2017-Jun-23 07:30N 59°30' E 024°56'0 0.0
2017-Jun-23 07:00N 59°30' E 024°56'0 0.0
2017-Jun-23 06:30N 59°30' E 024°56'0 0.0
2017-Jun-23 06:00N 59°30' E 024°56'0 0.0
2017-Jun-23 05:30N 59°30' E 024°56'0 0.0
2017-Jun-23 05:00N 59°30' E 024°56'0 0.0
2017-Jun-23 04:30N 59°30' E 024°56'0 0.0
2017-Jun-23 04:00N 59°30' E 024°56'0 0.0
2017-Jun-23 03:31N 59°30' E 024°56'0 0.0
2017-Jun-23 03:00N 59°30' E 024°56'0 0.0
2017-Jun-23 02:30N 59°30' E 024°56'0 0.0
2017-Jun-23 02:00N 59°30' E 024°56'0 0.0
2017-Jun-23 01:30N 59°30' E 024°56'0 0.0
2017-Jun-23 01:00N 59°30' E 024°56'0 0.0
2017-Jun-23 00:30N 59°30' E 024°56'0 0.0
2017-Jun-23 00:00N 59°30' E 024°56'0 0.0
2017-Jun-22 23:30N 59°30' E 024°56'0 0.0
2017-Jun-22 23:00N 59°30' E 024°56'0 0.0
2017-Jun-22 22:30N 59°30' E 024°56'0 0.0
2017-Jun-22 22:00N 59°30' E 024°56'0 0.0
2017-Jun-22 21:30N 59°30' E 024°56'0 0.0
2017-Jun-22 21:00N 59°30' E 024°56'0 0.0
2017-Jun-22 20:30N 59°30' E 024°56'0 0.0
2017-Jun-22 20:01N 59°30' E 024°56'0 0.0
2017-Jun-22 19:30N 59°30' E 024°56'0 0.0
2017-Jun-22 19:00N 59°30' E 024°56'0 0.0
2017-Jun-22 18:30N 59°30' E 024°56'0 0.0
2017-Jun-22 18:00N 59°30' E 024°56'0 0.0
2017-Jun-22 17:30N 59°30' E 024°56'0 0.0
2017-Jun-22 17:00N 59°30' E 024°56'0 0.0
2017-Jun-22 16:30N 59°30' E 024°56'0 0.0
2017-Jun-22 16:00N 59°30' E 024°56'0 0.0
2017-Jun-22 15:30N 59°30' E 024°56'0 0.0
2017-Jun-22 15:00N 59°30' E 024°56'0 0.0
2017-Jun-22 14:00N 59°30' E 024°56'1 1.5
2017-Jun-22 13:31N 59°30' E 024°58'1 1.1
2017-Jun-22 13:00N 59°30' E 024°57'0 1.0
2017-Jun-22 12:30N 59°30' E 024°56'0 0.0
2017-Jun-22 12:00N 59°30' E 024°56'0 0.0
2017-Jun-22 11:30N 59°30' E 024°56'0 0.0
2017-Jun-22 11:00N 59°30' E 024°56'0 0.0
2017-Jun-22 10:30N 59°30' E 024°56'0 0.0
2017-Jun-22 10:00N 59°30' E 024°56'0 0.0
2017-Jun-22 09:31N 59°30' E 024°56'0 0.0
2017-Jun-22 09:01N 59°30' E 024°56'0 0.2
2017-Jun-22 08:30N 59°30' E 024°57'0 0.7
2017-Jun-22 08:01N 59°30' E 024°57'0 0.7
2017-Jun-22 07:30N 59°30' E 024°56'0 0.0
2017-Jun-22 07:00N 59°30' E 024°56'0 0.0
2017-Jun-22 06:31N 59°30' E 024°56'0 0.0
2017-Jun-22 06:00N 59°30' E 024°56'0 0.0
2017-Jun-22 05:30N 59°30' E 024°56'0 0.0
2017-Jun-22 05:01N 59°30' E 024°56'0 0.0
2017-Jun-22 04:30N 59°30' E 024°56'0 0.0
2017-Jun-22 04:00N 59°30' E 024°56'0 0.0
2017-Jun-22 03:30N 59°30' E 024°56'0 0.0
2017-Jun-22 03:00N 59°30' E 024°56'0 0.0
2017-Jun-22 02:31N 59°30' E 024°56'0 0.0
2017-Jun-22 02:00N 59°30' E 024°56'0 0.0
2017-Jun-22 01:30N 59°30' E 024°56'0 0.0
2017-Jun-22 01:01N 59°30' E 024°56'0 0.0
2017-Jun-22 00:31N 59°30' E 024°56'0 0.0
2017-Jun-22 00:01N 59°30' E 024°56'0 0.0
2017-Jun-21 23:30N 59°30' E 024°56'0 0.0
2017-Jun-21 23:00N 59°30' E 024°56'0 0.0
2017-Jun-21 22:31N 59°30' E 024°56'0 0.0
2017-Jun-21 22:00N 59°30' E 024°56'0 0.0
2017-Jun-21 21:31N 59°30' E 024°56'0 0.0
2017-Jun-21 21:01N 59°30' E 024°56'0 0.0
2017-Jun-21 20:31N 59°30' E 024°56'0 0.0
2017-Jun-21 20:00N 59°30' E 024°56'0 0.0
2017-Jun-21 19:31N 59°30' E 024°56'0 0.0
2017-Jun-21 19:01N 59°30' E 024°56'0 0.0
2017-Jun-21 18:30N 59°30' E 024°56'0 0.0
2017-Jun-21 18:01N 59°30' E 024°56'0 0.0
2017-Jun-21 17:30N 59°30' E 024°56'0 0.0
2017-Jun-21 17:00N 59°30' E 024°56'0 0.0
2017-Jun-21 16:30N 59°30' E 024°56'0 0.0
2017-Jun-21 16:01N 59°30' E 024°56'0 0.0
2017-Jun-21 15:30N 59°30' E 024°56'0 0.0
2017-Jun-21 15:01N 59°30' E 024°56'0 0.0
2017-Jun-21 14:31N 59°30' E 024°56'0 0.0
2017-Jun-21 13:30N 59°30' E 024°56'0 0.0
2017-Jun-21 13:00N 59°30' E 024°56'0 0.0
2017-Jun-21 12:31N 59°30' E 024°56'0 0.0
2017-Jun-21 12:00N 59°30' E 024°56'0 0.0
2017-Jun-21 11:31N 59°30' E 024°56'0 0.0
2017-Jun-21 11:00N 59°30' E 024°56'0 0.0
2017-Jun-21 10:30N 59°30' E 024°56'0 0.0
2017-Jun-21 10:01N 59°30' E 024°56'0 0.0
2017-Jun-21 09:31N 59°30' E 024°56'0 0.3
2017-Jun-21 09:00N 59°30' E 024°57'0 0.7
2017-Jun-21 08:30N 59°30' E 024°57'0 1.0
2017-Jun-21 08:01N 59°30' E 024°56'0 0.0
2017-Jun-21 07:31N 59°30' E 024°56'0 0.0
2017-Jun-21 07:00N 59°30' E 024°56'0 0.0
2017-Jun-21 06:30N 59°30' E 024°56'0 0.0
2017-Jun-21 06:01N 59°30' E 024°56'0 0.0
2017-Jun-21 05:30N 59°30' E 024°56'0 0.0
2017-Jun-21 05:01N 59°30' E 024°56'0 0.0
2017-Jun-21 04:31N 59°30' E 024°56'1 1.7
2017-Jun-21 04:01N 59°29' E 024°58'1 1.7
2017-Jun-21 03:31N 59°30' E 024°58'1 1.8
2017-Jun-21 03:01N 59°30' E 024°56'0 0.0
2017-Jun-21 02:31N 59°30' E 024°56'0 0.0
2017-Jun-21 02:01N 59°30' E 024°56'0 0.0
2017-Jun-21 01:31N 59°30' E 024°56'0 0.0
2017-Jun-21 01:00N 59°30' E 024°56'0 0.0
2017-Jun-21 00:31N 59°30' E 024°56'0 0.0
2017-Jun-21 00:00N 59°30' E 024°56'0 0.0
2017-Jun-20 23:31N 59°30' E 024°56'0 0.0
2017-Jun-20 23:01N 59°30' E 024°56'0 0.0
2017-Jun-20 22:30N 59°30' E 024°56'0 0.0
2017-Jun-20 22:01N 59°30' E 024°56'0 0.0
2017-Jun-20 21:31N 59°30' E 024°56'0 0.0
2017-Jun-20 21:01N 59°30' E 024°56'0 0.0
2017-Jun-20 20:31N 59°30' E 024°56'0 0.0
2017-Jun-20 20:00N 59°30' E 024°56'4 7.7
2017-Jun-20 19:30N 59°33' E 024°53'510.1
2017-Jun-20 19:01N 59°37' E 024°46'2 4.9
2017-Jun-20 18:31N 59°35' E 024°42'5 9.5
2017-Jun-20 18:01N 59°30' E 024°45'4 7.6
2017-Jun-20 17:31N 59°27' E 024°46'0 0.0
2017-Jun-20 17:00N 59°27' E 024°46'0 0.0
2017-Jun-20 16:31N 59°27' E 024°46'0 0.5
2017-Jun-20 16:00N 59°27' E 024°46'0 0.5
2017-Jun-20 15:30N 59°27' E 024°46'0 0.6
2017-Jun-20 15:01N 59°27' E 024°46'0 0.6
2017-Jun-20 14:31N 59°27' E 024°46'0 0.3
2017-Jun-20 13:30N 59°27' E 024°46'0 0.6
2017-Jun-20 13:00N 59°27' E 024°46'0 0.0
2017-Jun-20 12:30N 59°27' E 024°46'0 0.0
2017-Jun-20 12:00N 59°27' E 024°46'0 0.0
2017-Jun-20 11:30N 59°27' E 024°46'0 0.0
2017-Jun-20 11:00N 59°27' E 024°46'0 0.0
2017-Jun-20 10:30N 59°27' E 024°46'0 0.0
2017-Jun-20 10:00N 59°27' E 024°46'0 0.0
2017-Jun-20 09:30N 59°27' E 024°46'0 0.0
2017-Jun-20 09:00N 59°27' E 024°46'0 0.0
2017-Jun-20 08:31N 59°27' E 024°46'4 7.1
2017-Jun-20 08:00N 59°30' E 024°46'5 9.0
2017-Jun-20 07:30N 59°34' E 024°43'3 5.1
2017-Jun-20 07:00N 59°36' E 024°47'510.7
2017-Jun-20 06:30N 59°33' E 024°55'3 5.7
2017-Jun-20 06:00N 59°30' E 024°56'0 0.0
2017-Jun-20 05:30N 59°30' E 024°56'0 0.0
2017-Jun-20 05:00N 59°30' E 024°56'0 0.0
2017-Jun-20 04:30N 59°30' E 024°56'0 0.0
2017-Jun-20 04:00N 59°30' E 024°56'0 0.0
2017-Jun-20 03:30N 59°30' E 024°56'0 0.0
2017-Jun-20 03:00N 59°30' E 024°56'0 0.0
2017-Jun-20 02:30N 59°30' E 024°56'0 0.0
2017-Jun-20 02:00N 59°30' E 024°56'0 0.0
2017-Jun-20 01:30N 59°30' E 024°56'0 0.0
2017-Jun-20 01:00N 59°30' E 024°56'0 0.0
2017-Jun-20 00:30N 59°30' E 024°56'0 0.0
2017-Jun-20 00:01N 59°30' E 024°56'0 0.0
2017-Jun-19 23:30N 59°30' E 024°56'0 0.0
2017-Jun-19 23:00N 59°30' E 024°56'0 0.0
2017-Jun-19 22:30N 59°30' E 024°56'0 0.0
2017-Jun-19 22:00N 59°30' E 024°56'0 0.0
2017-Jun-19 21:30N 59°30' E 024°56'0 0.0
2017-Jun-19 21:00N 59°30' E 024°56'0 0.0
2017-Jun-19 20:30N 59°30' E 024°56'0 0.0
2017-Jun-19 20:00N 59°30' E 024°56'1 1.1
2017-Jun-19 19:30N 59°30' E 024°58'0 0.0
2017-Jun-19 19:00N 59°30' E 024°58'0 0.6
2017-Jun-19 18:30N 59°30' E 024°58'1 1.3
2017-Jun-19 18:00N 59°30' E 024°56'0 0.0
2017-Jun-19 17:30N 59°30' E 024°56'1 1.3
2017-Jun-19 17:01N 59°30' E 024°58'1 2.3
2017-Jun-19 16:31N 59°31' E 024°57'1 2.1
2017-Jun-19 16:00N 59°30' E 024°56'0 0.0
2017-Jun-19 15:30N 59°30' E 024°56'0 0.0
2017-Jun-19 15:00N 59°30' E 024°56'0 0.0
2017-Jun-19 14:00N 59°30' E 024°56'0 0.0
2017-Jun-19 13:30N 59°30' E 024°56'0 0.0
2017-Jun-19 13:00N 59°30' E 024°56'0 0.0
2017-Jun-19 12:30N 59°30' E 024°56'0 0.0
2017-Jun-19 12:00N 59°30' E 024°56'0 0.0
2017-Jun-19 11:30N 59°30' E 024°56'0 0.0
2017-Jun-19 11:00N 59°30' E 024°56'0 0.0
2017-Jun-19 10:30N 59°30' E 024°56'0 0.2
2017-Jun-19 10:01N 59°30' E 024°57'0 0.4
2017-Jun-19 09:30N 59°30' E 024°57'0 0.3
2017-Jun-19 09:00N 59°30' E 024°56'0 0.0
2017-Jun-19 08:30N 59°30' E 024°56'0 0.0
2017-Jun-19 08:00N 59°30' E 024°56'0 0.0
2017-Jun-19 07:30N 59°30' E 024°56'  

Dump ship's entire track history